sensor_id;sensor_type;location;lat;lon;timestamp;P1;durP1;ratioP1;P2;durP2;ratioP2
10725;SDS011;5414;59.782;16.378;2023-07-31T00:00:36;2.83;;;2.00;;
10725;SDS011;5414;59.782;16.378;2023-07-31T00:03:02;3.77;;;2.00;;
10725;SDS011;5414;59.782;16.378;2023-07-31T00:05:28;2.73;;;1.80;;
10725;SDS011;5414;59.782;16.378;2023-07-31T00:07:54;2.60;;;1.90;;
10725;SDS011;5414;59.782;16.378;2023-07-31T00:10:20;2.73;;;2.40;;
10725;SDS011;5414;59.782;16.378;2023-07-31T00:12:46;2.70;;;2.30;;
10725;SDS011;5414;59.782;16.378;2023-07-31T00:15:13;3.10;;;2.40;;
10725;SDS011;5414;59.782;16.378;2023-07-31T00:17:40;2.57;;;2.33;;
10725;SDS011;5414;59.782;16.378;2023-07-31T00:20:06;3.17;;;2.13;;
10725;SDS011;5414;59.782;16.378;2023-07-31T00:22:33;2.30;;;2.10;;
10725;SDS011;5414;59.782;16.378;2023-07-31T00:24:59;2.63;;;2.43;;
10725;SDS011;5414;59.782;16.378;2023-07-31T00:27:25;2.53;;;2.20;;
10725;SDS011;5414;59.782;16.378;2023-07-31T00:29:51;2.40;;;2.20;;
10725;SDS011;5414;59.782;16.378;2023-07-31T00:32:17;2.60;;;2.40;;
10725;SDS011;5414;59.782;16.378;2023-07-31T00:34:43;2.87;;;2.37;;
10725;SDS011;5414;59.782;16.378;2023-07-31T00:37:09;2.90;;;2.40;;
10725;SDS011;5414;59.782;16.378;2023-07-31T00:39:35;3.00;;;2.43;;
10725;SDS011;5414;59.782;16.378;2023-07-31T00:42:01;2.83;;;2.40;;
10725;SDS011;5414;59.782;16.378;2023-07-31T00:44:27;3.10;;;2.37;;
10725;SDS011;5414;59.782;16.378;2023-07-31T00:46:54;2.37;;;2.07;;
10725;SDS011;5414;59.782;16.378;2023-07-31T00:49:20;2.83;;;2.50;;
10725;SDS011;5414;59.782;16.378;2023-07-31T00:51:48;2.70;;;2.50;;
10725;SDS011;5414;59.782;16.378;2023-07-31T00:54:14;3.93;;;2.77;;
10725;SDS011;5414;59.782;16.378;2023-07-31T00:56:40;2.63;;;2.30;;
10725;SDS011;5414;59.782;16.378;2023-07-31T00:59:07;2.13;;;2.00;;
10725;SDS011;5414;59.782;16.378;2023-07-31T01:01:33;4.50;;;2.40;;
10725;SDS011;5414;59.782;16.378;2023-07-31T01:04:00;3.93;;;2.57;;
10725;SDS011;5414;59.782;16.378;2023-07-31T01:09:09;2.97;;;2.03;;
10725;SDS011;5414;59.782;16.378;2023-07-31T01:12:00;2.53;;;2.17;;
10725;SDS011;5414;59.782;16.378;2023-07-31T01:14:24;3.30;;;2.80;;
10725;SDS011;5414;59.782;16.378;2023-07-31T01:16:50;3.73;;;2.40;;
10725;SDS011;5414;59.782;16.378;2023-07-31T01:19:17;2.50;;;2.30;;
10725;SDS011;5414;59.782;16.378;2023-07-31T01:21:53;2.60;;;2.40;;
10725;SDS011;5414;59.782;16.378;2023-07-31T01:27:15;4.83;;;2.73;;
10725;SDS011;5414;59.782;16.378;2023-07-31T01:29:46;2.53;;;2.23;;
10725;SDS011;5414;59.782;16.378;2023-07-31T01:32:14;2.17;;;1.93;;
10725;SDS011;5414;59.782;16.378;2023-07-31T01:34:42;4.30;;;2.50;;
10725;SDS011;5414;59.782;16.378;2023-07-31T01:37:08;3.40;;;2.13;;
10725;SDS011;5414;59.782;16.378;2023-07-31T01:39:36;2.70;;;2.30;;
10725;SDS011;5414;59.782;16.378;2023-07-31T01:42:02;3.87;;;2.27;;
10725;SDS011;5414;59.782;16.378;2023-07-31T01:44:29;3.13;;;2.03;;
10725;SDS011;5414;59.782;16.378;2023-07-31T01:46:55;2.07;;;1.80;;
10725;SDS011;5414;59.782;16.378;2023-07-31T01:49:21;3.60;;;2.43;;
10725;SDS011;5414;59.782;16.378;2023-07-31T01:51:47;2.20;;;2.00;;
10725;SDS011;5414;59.782;16.378;2023-07-31T01:54:13;2.80;;;2.27;;
10725;SDS011;5414;59.782;16.378;2023-07-31T01:56:39;3.43;;;2.30;;
10725;SDS011;5414;59.782;16.378;2023-07-31T01:59:06;2.80;;;2.40;;
10725;SDS011;5414;59.782;16.378;2023-07-31T02:01:32;3.67;;;2.40;;
10725;SDS011;5414;59.782;16.378;2023-07-31T02:03:57;2.87;;;2.50;;
10725;SDS011;5414;59.782;16.378;2023-07-31T02:06:24;2.77;;;2.17;;
10725;SDS011;5414;59.782;16.378;2023-07-31T02:08:50;2.93;;;2.40;;
10725;SDS011;5414;59.782;16.378;2023-07-31T02:11:16;2.50;;;2.10;;
10725;SDS011;5414;59.782;16.378;2023-07-31T02:13:42;2.07;;;1.93;;
10725;SDS011;5414;59.782;16.378;2023-07-31T02:16:08;2.20;;;2.10;;
10725;SDS011;5414;59.782;16.378;2023-07-31T02:18:34;2.17;;;1.77;;
10725;SDS011;5414;59.782;16.378;2023-07-31T02:21:00;2.57;;;2.10;;
10725;SDS011;5414;59.782;16.378;2023-07-31T02:23:26;4.07;;;2.10;;
10725;SDS011;5414;59.782;16.378;2023-07-31T02:25:52;2.47;;;1.93;;
10725;SDS011;5414;59.782;16.378;2023-07-31T02:28:18;2.03;;;1.93;;
10725;SDS011;5414;59.782;16.378;2023-07-31T02:30:44;5.10;;;2.57;;
10725;SDS011;5414;59.782;16.378;2023-07-31T02:33:11;3.27;;;1.90;;
10725;SDS011;5414;59.782;16.378;2023-07-31T02:35:37;2.33;;;2.10;;
10725;SDS011;5414;59.782;16.378;2023-07-31T02:38:03;2.10;;;1.80;;
10725;SDS011;5414;59.782;16.378;2023-07-31T02:40:29;2.00;;;1.90;;
10725;SDS011;5414;59.782;16.378;2023-07-31T02:42:55;3.77;;;2.30;;
10725;SDS011;5414;59.782;16.378;2023-07-31T02:45:21;2.57;;;2.20;;
10725;SDS011;5414;59.782;16.378;2023-07-31T02:47:47;2.83;;;2.07;;
10725;SDS011;5414;59.782;16.378;2023-07-31T02:50:13;3.50;;;2.40;;
10725;SDS011;5414;59.782;16.378;2023-07-31T02:52:39;2.77;;;1.83;;
10725;SDS011;5414;59.782;16.378;2023-07-31T02:55:05;2.80;;;2.00;;
10725;SDS011;5414;59.782;16.378;2023-07-31T02:57:31;2.10;;;1.90;;
10725;SDS011;5414;59.782;16.378;2023-07-31T02:59:57;2.00;;;1.90;;
10725;SDS011;5414;59.782;16.378;2023-07-31T03:02:23;3.47;;;1.93;;
10725;SDS011;5414;59.782;16.378;2023-07-31T03:04:49;2.27;;;2.13;;
10725;SDS011;5414;59.782;16.378;2023-07-31T03:07:15;2.67;;;1.97;;
10725;SDS011;5414;59.782;16.378;2023-07-31T03:09:41;2.20;;;2.07;;
10725;SDS011;5414;59.782;16.378;2023-07-31T03:12:08;5.43;;;1.90;;
10725;SDS011;5414;59.782;16.378;2023-07-31T03:14:34;2.50;;;2.00;;
10725;SDS011;5414;59.782;16.378;2023-07-31T03:17:01;2.23;;;2.13;;
10725;SDS011;5414;59.782;16.378;2023-07-31T03:19:29;2.30;;;2.10;;
10725;SDS011;5414;59.782;16.378;2023-07-31T03:21:55;2.13;;;2.03;;
10725;SDS011;5414;59.782;16.378;2023-07-31T03:24:21;2.27;;;1.90;;
10725;SDS011;5414;59.782;16.378;2023-07-31T03:26:47;3.60;;;2.47;;
10725;SDS011;5414;59.782;16.378;2023-07-31T03:29:13;2.90;;;2.10;;
10725;SDS011;5414;59.782;16.378;2023-07-31T03:31:39;2.87;;;2.00;;
10725;SDS011;5414;59.782;16.378;2023-07-31T03:34:05;2.30;;;2.10;;
10725;SDS011;5414;59.782;16.378;2023-07-31T03:36:32;2.40;;;2.20;;
10725;SDS011;5414;59.782;16.378;2023-07-31T03:38:58;4.77;;;2.30;;
10725;SDS011;5414;59.782;16.378;2023-07-31T03:41:24;3.20;;;2.23;;
10725;SDS011;5414;59.782;16.378;2023-07-31T03:43:50;3.83;;;2.77;;
10725;SDS011;5414;59.782;16.378;2023-07-31T03:46:17;3.10;;;2.40;;
10725;SDS011;5414;59.782;16.378;2023-07-31T03:48:43;3.40;;;2.27;;
10725;SDS011;5414;59.782;16.378;2023-07-31T03:51:09;2.93;;;2.17;;
10725;SDS011;5414;59.782;16.378;2023-07-31T03:53:36;2.30;;;2.10;;
10725;SDS011;5414;59.782;16.378;2023-07-31T03:56:02;2.90;;;2.17;;
10725;SDS011;5414;59.782;16.378;2023-07-31T03:58:29;3.30;;;2.17;;
10725;SDS011;5414;59.782;16.378;2023-07-31T04:00:55;2.07;;;1.60;;
10725;SDS011;5414;59.782;16.378;2023-07-31T04:03:21;4.53;;;2.20;;
10725;SDS011;5414;59.782;16.378;2023-07-31T04:05:47;2.13;;;2.03;;
10725;SDS011;5414;59.782;16.378;2023-07-31T04:08:13;2.67;;;2.30;;
10725;SDS011;5414;59.782;16.378;2023-07-31T04:10:39;2.67;;;2.33;;
10725;SDS011;5414;59.782;16.378;2023-07-31T04:13:06;3.30;;;2.70;;
10725;SDS011;5414;59.782;16.378;2023-07-31T04:15:32;4.70;;;2.70;;
10725;SDS011;5414;59.782;16.378;2023-07-31T04:17:58;5.83;;;2.80;;
10725;SDS011;5414;59.782;16.378;2023-07-31T04:20:25;4.07;;;2.80;;
10725;SDS011;5414;59.782;16.378;2023-07-31T04:22:52;4.33;;;3.10;;
10725;SDS011;5414;59.782;16.378;2023-07-31T04:25:18;5.50;;;2.90;;
10725;SDS011;5414;59.782;16.378;2023-07-31T04:27:44;4.83;;;2.73;;
10725;SDS011;5414;59.782;16.378;2023-07-31T04:30:10;6.33;;;3.10;;
10725;SDS011;5414;59.782;16.378;2023-07-31T04:32:36;3.53;;;2.70;;
10725;SDS011;5414;59.782;16.378;2023-07-31T04:35:03;4.80;;;2.80;;
10725;SDS011;5414;59.782;16.378;2023-07-31T04:37:29;3.20;;;2.80;;
10725;SDS011;5414;59.782;16.378;2023-07-31T04:39:55;3.50;;;2.73;;
10725;SDS011;5414;59.782;16.378;2023-07-31T04:42:21;3.33;;;2.57;;
10725;SDS011;5414;59.782;16.378;2023-07-31T04:44:47;3.90;;;2.53;;
10725;SDS011;5414;59.782;16.378;2023-07-31T04:47:14;4.03;;;2.80;;
10725;SDS011;5414;59.782;16.378;2023-07-31T04:49:40;5.60;;;2.83;;
10725;SDS011;5414;59.782;16.378;2023-07-31T04:52:06;3.43;;;2.70;;
10725;SDS011;5414;59.782;16.378;2023-07-31T04:54:33;2.93;;;2.70;;
10725;SDS011;5414;59.782;16.378;2023-07-31T04:56:59;4.13;;;2.93;;
10725;SDS011;5414;59.782;16.378;2023-07-31T04:59:26;4.73;;;2.67;;
10725;SDS011;5414;59.782;16.378;2023-07-31T05:01:52;3.30;;;2.60;;
10725;SDS011;5414;59.782;16.378;2023-07-31T05:04:18;3.30;;;2.73;;
10725;SDS011;5414;59.782;16.378;2023-07-31T05:06:44;4.30;;;2.93;;
10725;SDS011;5414;59.782;16.378;2023-07-31T05:09:10;3.60;;;2.70;;
10725;SDS011;5414;59.782;16.378;2023-07-31T05:11:37;4.23;;;2.60;;
10725;SDS011;5414;59.782;16.378;2023-07-31T05:14:05;2.70;;;2.33;;
10725;SDS011;5414;59.782;16.378;2023-07-31T05:16:31;3.03;;;2.33;;
10725;SDS011;5414;59.782;16.378;2023-07-31T05:18:57;4.07;;;2.40;;
10725;SDS011;5414;59.782;16.378;2023-07-31T05:21:23;3.37;;;2.70;;
10725;SDS011;5414;59.782;16.378;2023-07-31T05:23:49;4.07;;;2.60;;
10725;SDS011;5414;59.782;16.378;2023-07-31T05:26:15;2.60;;;2.40;;
10725;SDS011;5414;59.782;16.378;2023-07-31T05:28:43;2.97;;;2.13;;
10725;SDS011;5414;59.782;16.378;2023-07-31T05:31:09;5.13;;;2.27;;
10725;SDS011;5414;59.782;16.378;2023-07-31T05:33:35;6.03;;;2.50;;
10725;SDS011;5414;59.782;16.378;2023-07-31T05:36:01;5.03;;;2.50;;
10725;SDS011;5414;59.782;16.378;2023-07-31T05:38:27;5.83;;;2.60;;
10725;SDS011;5414;59.782;16.378;2023-07-31T05:40:53;3.33;;;2.40;;
10725;SDS011;5414;59.782;16.378;2023-07-31T05:43:19;4.70;;;2.50;;
10725;SDS011;5414;59.782;16.378;2023-07-31T05:45:45;4.27;;;2.50;;
10725;SDS011;5414;59.782;16.378;2023-07-31T05:48:11;4.13;;;2.43;;
10725;SDS011;5414;59.782;16.378;2023-07-31T05:50:38;2.63;;;2.37;;
10725;SDS011;5414;59.782;16.378;2023-07-31T05:53:05;3.70;;;2.70;;
10725;SDS011;5414;59.782;16.378;2023-07-31T05:55:31;4.77;;;2.40;;
10725;SDS011;5414;59.782;16.378;2023-07-31T05:57:57;5.53;;;2.50;;
10725;SDS011;5414;59.782;16.378;2023-07-31T06:00:23;3.53;;;2.20;;
10725;SDS011;5414;59.782;16.378;2023-07-31T06:02:49;4.17;;;2.40;;
10725;SDS011;5414;59.782;16.378;2023-07-31T06:05:16;2.90;;;2.20;;
10725;SDS011;5414;59.782;16.378;2023-07-31T06:07:42;5.47;;;2.30;;
10725;SDS011;5414;59.782;16.378;2023-07-31T06:10:08;5.50;;;2.60;;
10725;SDS011;5414;59.782;16.378;2023-07-31T06:12:35;2.93;;;1.80;;
10725;SDS011;5414;59.782;16.378;2023-07-31T06:15:02;4.27;;;2.20;;
10725;SDS011;5414;59.782;16.378;2023-07-31T06:17:28;5.10;;;2.30;;
10725;SDS011;5414;59.782;16.378;2023-07-31T06:19:56;3.43;;;2.30;;
10725;SDS011;5414;59.782;16.378;2023-07-31T06:22:22;5.10;;;2.53;;
10725;SDS011;5414;59.782;16.378;2023-07-31T06:24:48;3.43;;;2.03;;
10725;SDS011;5414;59.782;16.378;2023-07-31T06:27:14;4.23;;;2.30;;
10725;SDS011;5414;59.782;16.378;2023-07-31T06:29:40;3.17;;;2.20;;
10725;SDS011;5414;59.782;16.378;2023-07-31T06:32:06;3.77;;;2.20;;
10725;SDS011;5414;59.782;16.378;2023-07-31T06:34:32;3.77;;;2.00;;
10725;SDS011;5414;59.782;16.378;2023-07-31T06:36:58;5.13;;;2.47;;
10725;SDS011;5414;59.782;16.378;2023-07-31T06:39:24;5.87;;;2.17;;
10725;SDS011;5414;59.782;16.378;2023-07-31T06:41:50;5.53;;;2.40;;
10725;SDS011;5414;59.782;16.378;2023-07-31T06:44:16;3.30;;;2.20;;
10725;SDS011;5414;59.782;16.378;2023-07-31T06:46:42;3.77;;;2.20;;
10725;SDS011;5414;59.782;16.378;2023-07-31T06:49:08;4.53;;;2.40;;
10725;SDS011;5414;59.782;16.378;2023-07-31T06:51:35;5.00;;;2.50;;
10725;SDS011;5414;59.782;16.378;2023-07-31T06:54:01;3.23;;;2.30;;
10725;SDS011;5414;59.782;16.378;2023-07-31T06:56:28;2.83;;;2.20;;
10725;SDS011;5414;59.782;16.378;2023-07-31T06:58:55;4.13;;;2.30;;
10725;SDS011;5414;59.782;16.378;2023-07-31T07:01:22;4.80;;;2.83;;
10725;SDS011;5414;59.782;16.378;2023-07-31T07:03:48;4.37;;;2.50;;
10725;SDS011;5414;59.782;16.378;2023-07-31T07:06:16;5.17;;;2.60;;
10725;SDS011;5414;59.782;16.378;2023-07-31T07:08:42;5.03;;;3.23;;
10725;SDS011;5414;59.782;16.378;2023-07-31T07:11:10;3.47;;;2.60;;
10725;SDS011;5414;59.782;16.378;2023-07-31T07:13:36;5.83;;;2.90;;
10725;SDS011;5414;59.782;16.378;2023-07-31T07:16:02;4.87;;;2.30;;
10725;SDS011;5414;59.782;16.378;2023-07-31T07:18:28;5.40;;;2.73;;
10725;SDS011;5414;59.782;16.378;2023-07-31T07:20:54;4.20;;;2.60;;
10725;SDS011;5414;59.782;16.378;2023-07-31T07:23:23;7.43;;;2.90;;
10725;SDS011;5414;59.782;16.378;2023-07-31T07:25:50;3.67;;;2.60;;
10725;SDS011;5414;59.782;16.378;2023-07-31T07:28:18;3.17;;;2.40;;
10725;SDS011;5414;59.782;16.378;2023-07-31T07:30:44;2.50;;;2.30;;
10725;SDS011;5414;59.782;16.378;2023-07-31T07:33:10;4.00;;;2.70;;
10725;SDS011;5414;59.782;16.378;2023-07-31T07:35:37;4.77;;;3.07;;
10725;SDS011;5414;59.782;16.378;2023-07-31T07:38:03;4.07;;;2.57;;
10725;SDS011;5414;59.782;16.378;2023-07-31T07:40:29;4.23;;;2.57;;
10725;SDS011;5414;59.782;16.378;2023-07-31T07:42:55;7.23;;;2.70;;
10725;SDS011;5414;59.782;16.378;2023-07-31T07:45:21;3.87;;;2.60;;
10725;SDS011;5414;59.782;16.378;2023-07-31T07:47:47;5.57;;;2.73;;
10725;SDS011;5414;59.782;16.378;2023-07-31T07:50:13;4.13;;;2.60;;
10725;SDS011;5414;59.782;16.378;2023-07-31T07:52:39;5.17;;;2.73;;
10725;SDS011;5414;59.782;16.378;2023-07-31T07:55:05;5.97;;;2.43;;
10725;SDS011;5414;59.782;16.378;2023-07-31T07:57:31;4.43;;;2.60;;
10725;SDS011;5414;59.782;16.378;2023-07-31T07:59:58;4.53;;;2.50;;
10725;SDS011;5414;59.782;16.378;2023-07-31T08:02:24;4.37;;;2.80;;
10725;SDS011;5414;59.782;16.378;2023-07-31T08:04:50;4.40;;;2.43;;
10725;SDS011;5414;59.782;16.378;2023-07-31T08:07:16;3.63;;;2.47;;
10725;SDS011;5414;59.782;16.378;2023-07-31T08:09:42;4.87;;;2.60;;
10725;SDS011;5414;59.782;16.378;2023-07-31T08:12:08;4.77;;;2.40;;
10725;SDS011;5414;59.782;16.378;2023-07-31T08:14:34;3.70;;;2.00;;
10725;SDS011;5414;59.782;16.378;2023-07-31T08:17:02;3.63;;;2.63;;
10725;SDS011;5414;59.782;16.378;2023-07-31T08:19:28;4.93;;;2.50;;
10725;SDS011;5414;59.782;16.378;2023-07-31T08:21:54;6.07;;;2.23;;
10725;SDS011;5414;59.782;16.378;2023-07-31T08:24:20;5.00;;;2.40;;
10725;SDS011;5414;59.782;16.378;2023-07-31T08:26:46;3.33;;;2.40;;
10725;SDS011;5414;59.782;16.378;2023-07-31T08:29:13;5.77;;;2.40;;
10725;SDS011;5414;59.782;16.378;2023-07-31T08:31:39;4.20;;;2.33;;
10725;SDS011;5414;59.782;16.378;2023-07-31T08:34:05;4.47;;;2.50;;
10725;SDS011;5414;59.782;16.378;2023-07-31T08:36:31;4.00;;;2.20;;
10725;SDS011;5414;59.782;16.378;2023-07-31T08:39:00;3.70;;;2.10;;
10725;SDS011;5414;59.782;16.378;2023-07-31T08:41:27;5.07;;;2.50;;
10725;SDS011;5414;59.782;16.378;2023-07-31T08:43:53;3.63;;;2.30;;
10725;SDS011;5414;59.782;16.378;2023-07-31T08:46:20;6.87;;;2.90;;
10725;SDS011;5414;59.782;16.378;2023-07-31T08:48:48;4.63;;;2.53;;
10725;SDS011;5414;59.782;16.378;2023-07-31T08:51:14;5.40;;;2.30;;
10725;SDS011;5414;59.782;16.378;2023-07-31T08:53:40;3.23;;;2.40;;
10725;SDS011;5414;59.782;16.378;2023-07-31T08:56:06;3.93;;;2.40;;
10725;SDS011;5414;59.782;16.378;2023-07-31T08:58:34;4.10;;;2.27;;
10725;SDS011;5414;59.782;16.378;2023-07-31T09:01:03;4.67;;;2.43;;
10725;SDS011;5414;59.782;16.378;2023-07-31T09:03:31;5.37;;;2.53;;
10725;SDS011;5414;59.782;16.378;2023-07-31T09:05:58;3.13;;;2.27;;
10725;SDS011;5414;59.782;16.378;2023-07-31T09:08:26;2.93;;;2.30;;
10725;SDS011;5414;59.782;16.378;2023-07-31T09:10:53;3.50;;;2.07;;
10725;SDS011;5414;59.782;16.378;2023-07-31T09:13:20;5.80;;;2.50;;
10725;SDS011;5414;59.782;16.378;2023-07-31T09:15:46;4.23;;;2.30;;
10725;SDS011;5414;59.782;16.378;2023-07-31T09:18:12;5.90;;;2.40;;
10725;SDS011;5414;59.782;16.378;2023-07-31T09:20:44;3.57;;;2.37;;
10725;SDS011;5414;59.782;16.378;2023-07-31T09:23:11;4.47;;;2.67;;
10725;SDS011;5414;59.782;16.378;2023-07-31T09:25:38;3.77;;;2.40;;
10725;SDS011;5414;59.782;16.378;2023-07-31T09:28:07;4.70;;;2.40;;
10725;SDS011;5414;59.782;16.378;2023-07-31T09:30:49;3.87;;;2.30;;
10725;SDS011;5414;59.782;16.378;2023-07-31T09:33:16;5.73;;;2.80;;
10725;SDS011;5414;59.782;16.378;2023-07-31T09:35:42;4.27;;;2.43;;
10725;SDS011;5414;59.782;16.378;2023-07-31T09:38:12;4.53;;;2.60;;
10725;SDS011;5414;59.782;16.378;2023-07-31T09:40:45;4.07;;;2.30;;
10725;SDS011;5414;59.782;16.378;2023-07-31T09:43:21;5.27;;;2.40;;
10725;SDS011;5414;59.782;16.378;2023-07-31T09:45:53;3.77;;;2.43;;
10725;SDS011;5414;59.782;16.378;2023-07-31T09:48:19;3.70;;;2.33;;
10725;SDS011;5414;59.782;16.378;2023-07-31T09:50:46;2.67;;;2.07;;
10725;SDS011;5414;59.782;16.378;2023-07-31T09:53:12;4.87;;;2.53;;
10725;SDS011;5414;59.782;16.378;2023-07-31T09:55:39;3.47;;;2.30;;
10725;SDS011;5414;59.782;16.378;2023-07-31T09:58:09;3.17;;;2.23;;
10725;SDS011;5414;59.782;16.378;2023-07-31T10:00:35;4.80;;;2.50;;
10725;SDS011;5414;59.782;16.378;2023-07-31T10:03:07;2.80;;;2.10;;
10725;SDS011;5414;59.782;16.378;2023-07-31T10:05:34;3.63;;;2.17;;
10725;SDS011;5414;59.782;16.378;2023-07-31T10:08:00;3.97;;;2.23;;
10725;SDS011;5414;59.782;16.378;2023-07-31T10:10:27;4.70;;;2.40;;
10725;SDS011;5414;59.782;16.378;2023-07-31T10:12:53;4.17;;;2.40;;
10725;SDS011;5414;59.782;16.378;2023-07-31T10:15:19;3.57;;;2.10;;
10725;SDS011;5414;59.782;16.378;2023-07-31T10:17:49;4.87;;;2.40;;
10725;SDS011;5414;59.782;16.378;2023-07-31T10:20:16;2.53;;;2.20;;
10725;SDS011;5414;59.782;16.378;2023-07-31T10:22:43;3.23;;;2.20;;
10725;SDS011;5414;59.782;16.378;2023-07-31T10:25:11;5.63;;;2.40;;
10725;SDS011;5414;59.782;16.378;2023-07-31T10:27:38;5.00;;;2.60;;
10725;SDS011;5414;59.782;16.378;2023-07-31T10:30:05;4.00;;;2.33;;
10725;SDS011;5414;59.782;16.378;2023-07-31T10:32:32;4.10;;;2.23;;
10725;SDS011;5414;59.782;16.378;2023-07-31T10:34:58;3.03;;;2.30;;
10725;SDS011;5414;59.782;16.378;2023-07-31T10:37:58;4.10;;;2.30;;
10725;SDS011;5414;59.782;16.378;2023-07-31T10:40:19;4.17;;;2.50;;
10725;SDS011;5414;59.782;16.378;2023-07-31T10:42:49;4.30;;;2.47;;
10725;SDS011;5414;59.782;16.378;2023-07-31T10:45:35;3.93;;;2.67;;
10725;SDS011;5414;59.782;16.378;2023-07-31T10:48:05;4.97;;;2.50;;
10725;SDS011;5414;59.782;16.378;2023-07-31T10:50:32;6.20;;;2.57;;
10725;SDS011;5414;59.782;16.378;2023-07-31T10:53:02;5.37;;;2.43;;
10725;SDS011;5414;59.782;16.378;2023-07-31T10:55:41;4.10;;;2.17;;
10725;SDS011;5414;59.782;16.378;2023-07-31T10:58:13;2.87;;;2.30;;
10725;SDS011;5414;59.782;16.378;2023-07-31T11:03:09;4.83;;;1.90;;
10725;SDS011;5414;59.782;16.378;2023-07-31T11:05:52;3.57;;;2.20;;
10725;SDS011;5414;59.782;16.378;2023-07-31T11:08:28;3.97;;;2.47;;
10725;SDS011;5414;59.782;16.378;2023-07-31T11:15:55;5.50;;;2.17;;
10725;SDS011;5414;59.782;16.378;2023-07-31T11:18:21;2.93;;;2.07;;
10725;SDS011;5414;59.782;16.378;2023-07-31T11:20:47;2.47;;;1.80;;
10725;SDS011;5414;59.782;16.378;2023-07-31T11:23:15;5.10;;;2.30;;
10725;SDS011;5414;59.782;16.378;2023-07-31T11:25:41;4.13;;;2.20;;
10725;SDS011;5414;59.782;16.378;2023-07-31T11:28:14;5.17;;;2.37;;
10725;SDS011;5414;59.782;16.378;2023-07-31T11:30:40;5.13;;;2.10;;
10725;SDS011;5414;59.782;16.378;2023-07-31T11:33:09;6.07;;;2.20;;
10725;SDS011;5414;59.782;16.378;2023-07-31T11:35:35;3.33;;;2.00;;
10725;SDS011;5414;59.782;16.378;2023-07-31T11:38:03;5.17;;;2.30;;
10725;SDS011;5414;59.782;16.378;2023-07-31T11:40:29;4.33;;;2.00;;
10725;SDS011;5414;59.782;16.378;2023-07-31T11:42:56;4.73;;;2.00;;
10725;SDS011;5414;59.782;16.378;2023-07-31T11:45:24;2.07;;;1.60;;
10725;SDS011;5414;59.782;16.378;2023-07-31T11:47:50;3.47;;;2.10;;
10725;SDS011;5414;59.782;16.378;2023-07-31T11:50:16;3.97;;;2.00;;
10725;SDS011;5414;59.782;16.378;2023-07-31T11:52:42;3.03;;;1.73;;
10725;SDS011;5414;59.782;16.378;2023-07-31T11:55:11;4.00;;;1.97;;
10725;SDS011;5414;59.782;16.378;2023-07-31T11:57:38;3.27;;;1.97;;
10725;SDS011;5414;59.782;16.378;2023-07-31T12:00:06;5.27;;;2.07;;
10725;SDS011;5414;59.782;16.378;2023-07-31T12:02:33;3.63;;;2.00;;
10725;SDS011;5414;59.782;16.378;2023-07-31T12:04:59;3.63;;;1.80;;
10725;SDS011;5414;59.782;16.378;2023-07-31T12:07:25;3.63;;;2.00;;
10725;SDS011;5414;59.782;16.378;2023-07-31T12:09:52;5.77;;;1.73;;
10725;SDS011;5414;59.782;16.378;2023-07-31T12:12:21;4.40;;;1.90;;
10725;SDS011;5414;59.782;16.378;2023-07-31T12:14:48;3.50;;;2.13;;
10725;SDS011;5414;59.782;16.378;2023-07-31T12:17:16;3.27;;;1.90;;
10725;SDS011;5414;59.782;16.378;2023-07-31T12:19:42;3.43;;;1.97;;
10725;SDS011;5414;59.782;16.378;2023-07-31T12:22:12;3.10;;;2.00;;
10725;SDS011;5414;59.782;16.378;2023-07-31T12:24:39;3.03;;;2.00;;
10725;SDS011;5414;59.782;16.378;2023-07-31T12:27:11;2.67;;;1.90;;
10725;SDS011;5414;59.782;16.378;2023-07-31T12:29:38;2.03;;;1.50;;
10725;SDS011;5414;59.782;16.378;2023-07-31T12:32:04;1.97;;;1.37;;
10725;SDS011;5414;59.782;16.378;2023-07-31T12:34:32;1.97;;;1.40;;
10725;SDS011;5414;59.782;16.378;2023-07-31T12:37:08;3.43;;;1.70;;
10725;SDS011;5414;59.782;16.378;2023-07-31T12:39:34;2.47;;;1.40;;
10725;SDS011;5414;59.782;16.378;2023-07-31T12:42:00;3.37;;;1.70;;
10725;SDS011;5414;59.782;16.378;2023-07-31T12:44:26;3.10;;;1.40;;
10725;SDS011;5414;59.782;16.378;2023-07-31T12:46:52;1.87;;;1.47;;
10725;SDS011;5414;59.782;16.378;2023-07-31T12:49:18;2.40;;;1.40;;
10725;SDS011;5414;59.782;16.378;2023-07-31T12:51:45;2.20;;;1.30;;
10725;SDS011;5414;59.782;16.378;2023-07-31T12:54:12;3.47;;;1.63;;
10725;SDS011;5414;59.782;16.378;2023-07-31T12:56:38;2.00;;;1.33;;
10725;SDS011;5414;59.782;16.378;2023-07-31T12:59:04;2.67;;;1.50;;
10725;SDS011;5414;59.782;16.378;2023-07-31T13:01:30;1.87;;;1.40;;
10725;SDS011;5414;59.782;16.378;2023-07-31T13:03:56;3.23;;;1.80;;
10725;SDS011;5414;59.782;16.378;2023-07-31T13:06:24;2.50;;;1.60;;
10725;SDS011;5414;59.782;16.378;2023-07-31T13:08:51;4.93;;;1.90;;
10725;SDS011;5414;59.782;16.378;2023-07-31T13:11:17;1.83;;;1.40;;
10725;SDS011;5414;59.782;16.378;2023-07-31T13:13:43;2.30;;;1.60;;
10725;SDS011;5414;59.782;16.378;2023-07-31T13:16:09;2.43;;;1.60;;
10725;SDS011;5414;59.782;16.378;2023-07-31T13:18:35;2.10;;;1.43;;
10725;SDS011;5414;59.782;16.378;2023-07-31T13:21:01;2.60;;;1.67;;
10725;SDS011;5414;59.782;16.378;2023-07-31T13:23:27;2.70;;;1.73;;
10725;SDS011;5414;59.782;16.378;2023-07-31T13:25:53;2.57;;;1.47;;
10725;SDS011;5414;59.782;16.378;2023-07-31T13:28:19;2.97;;;1.77;;
10725;SDS011;5414;59.782;16.378;2023-07-31T13:30:45;4.00;;;1.70;;
10725;SDS011;5414;59.782;16.378;2023-07-31T13:33:11;2.33;;;1.60;;
10725;SDS011;5414;59.782;16.378;2023-07-31T13:35:37;2.37;;;1.83;;
10725;SDS011;5414;59.782;16.378;2023-07-31T13:38:03;5.37;;;1.90;;
10725;SDS011;5414;59.782;16.378;2023-07-31T13:40:30;3.50;;;1.80;;
10725;SDS011;5414;59.782;16.378;2023-07-31T13:42:56;3.03;;;1.97;;
10725;SDS011;5414;59.782;16.378;2023-07-31T13:45:22;2.20;;;1.60;;
10725;SDS011;5414;59.782;16.378;2023-07-31T13:47:49;2.87;;;1.87;;
10725;SDS011;5414;59.782;16.378;2023-07-31T13:50:16;3.00;;;1.80;;
10725;SDS011;5414;59.782;16.378;2023-07-31T13:52:45;2.83;;;1.50;;
10725;SDS011;5414;59.782;16.378;2023-07-31T13:55:11;2.57;;;1.60;;
10725;SDS011;5414;59.782;16.378;2023-07-31T13:57:37;2.07;;;1.43;;
10725;SDS011;5414;59.782;16.378;2023-07-31T14:00:04;3.00;;;1.50;;
10725;SDS011;5414;59.782;16.378;2023-07-31T14:02:30;2.60;;;1.60;;
10725;SDS011;5414;59.782;16.378;2023-07-31T14:04:56;2.20;;;1.53;;
10725;SDS011;5414;59.782;16.378;2023-07-31T14:07:22;2.10;;;1.50;;
10725;SDS011;5414;59.782;16.378;2023-07-31T14:09:48;3.67;;;1.40;;
10725;SDS011;5414;59.782;16.378;2023-07-31T14:12:14;2.30;;;1.50;;
10725;SDS011;5414;59.782;16.378;2023-07-31T14:14:40;2.63;;;1.37;;
10725;SDS011;5414;59.782;16.378;2023-07-31T14:17:06;2.27;;;1.50;;
10725;SDS011;5414;59.782;16.378;2023-07-31T14:19:32;3.33;;;1.80;;
10725;SDS011;5414;59.782;16.378;2023-07-31T14:21:58;2.83;;;1.60;;
10725;SDS011;5414;59.782;16.378;2023-07-31T14:24:25;2.47;;;1.60;;
10725;SDS011;5414;59.782;16.378;2023-07-31T14:26:51;2.43;;;1.37;;
10725;SDS011;5414;59.782;16.378;2023-07-31T14:29:16;3.57;;;1.50;;
10725;SDS011;5414;59.782;16.378;2023-07-31T14:31:43;2.53;;;1.60;;
10725;SDS011;5414;59.782;16.378;2023-07-31T14:34:09;4.10;;;1.70;;
10725;SDS011;5414;59.782;16.378;2023-07-31T14:36:35;2.60;;;1.37;;
10725;SDS011;5414;59.782;16.378;2023-07-31T14:39:01;2.20;;;1.43;;
10725;SDS011;5414;59.782;16.378;2023-07-31T14:41:27;2.70;;;1.60;;
10725;SDS011;5414;59.782;16.378;2023-07-31T14:43:53;4.10;;;1.70;;
10725;SDS011;5414;59.782;16.378;2023-07-31T14:46:19;1.93;;;1.53;;
10725;SDS011;5414;59.782;16.378;2023-07-31T14:48:46;3.27;;;1.73;;
10725;SDS011;5414;59.782;16.378;2023-07-31T14:51:12;4.00;;;1.67;;
10725;SDS011;5414;59.782;16.378;2023-07-31T14:53:39;2.63;;;1.60;;
10725;SDS011;5414;59.782;16.378;2023-07-31T14:56:05;2.20;;;1.77;;
10725;SDS011;5414;59.782;16.378;2023-07-31T14:58:31;1.73;;;1.33;;